createdAt,value
2017-11-30T00:02:23.760Z,77.30
2017-11-30T00:04:50.413Z,77.10
2017-11-30T00:07:16.661Z,77.40
2017-11-30T00:09:43.605Z,77.60
2017-11-30T00:12:11.562Z,77.50
2017-11-30T00:14:37.784Z,77.40
2017-11-30T00:17:04.006Z,77.40
2017-11-30T00:19:30.757Z,77.20
2017-11-30T00:21:57.525Z,77.30
2017-11-30T00:24:24.696Z,77.40
2017-11-30T00:26:52.733Z,77.40
2017-11-30T00:29:20.200Z,77.80
2017-11-30T00:31:46.392Z,77.80
2017-11-30T00:34:13.564Z,77.90
2017-11-30T00:36:41.078Z,77.50
2017-11-30T00:39:07.844Z,77.40
2017-11-30T00:41:35.176Z,77.50
2017-11-30T00:44:14.654Z,77.50
2017-11-30T00:46:42.844Z,77.40
2017-11-30T00:49:09.589Z,77.40
2017-11-30T00:51:36.403Z,77.70
2017-11-30T00:54:03.894Z,78.00
2017-11-30T00:56:30.067Z,78.00
2017-11-30T00:58:57.083Z,77.90
2017-11-30T01:01:23.272Z,77.80
2017-11-30T01:03:50.928Z,77.50
2017-11-30T01:06:18.580Z,77.60
2017-11-30T01:08:45.521Z,77.60
2017-11-30T01:11:12.328Z,77.60
2017-11-30T01:13:46.972Z,77.50
2017-11-30T01:16:13.516Z,77.50
2017-11-30T01:18:40.762Z,77.30
2017-11-30T01:21:19.379Z,77.50
2017-11-30T01:23:46.123Z,77.70
2017-11-30T01:26:13.241Z,77.90
2017-11-30T01:28:40.257Z,78.00
2017-11-30T01:31:07.130Z,77.90
2017-11-30T01:33:33.341Z,78.00
2017-11-30T01:36:00.233Z,78.50
2017-11-30T01:38:26.643Z,78.50
2017-11-30T01:40:54.136Z,79.00
2017-11-30T01:43:21.759Z,78.80
2017-11-30T01:45:48.501Z,78.60
2017-11-30T01:48:15.267Z,78.60
2017-11-30T01:50:41.460Z,78.70
2017-11-30T01:53:08.202Z,79.40
2017-11-30T01:55:34.897Z,79.00
2017-11-30T01:58:02.785Z,79.30
2017-11-30T02:00:29.318Z,79.30
2017-11-30T02:02:56.791Z,79.30
2017-11-30T02:05:24.364Z,79.20
2017-11-30T02:07:50.815Z,79.20
2017-11-30T02:10:17.570Z,79.30
2017-11-30T02:12:44.501Z,79.30
2017-11-30T02:15:11.229Z,79.30
2017-11-30T02:17:38.020Z,79.00
2017-11-30T02:20:04.649Z,78.10
2017-11-30T02:22:32.279Z,77.90
2017-11-30T02:24:58.767Z,77.90
2017-11-30T02:27:25.748Z,78.90
2017-11-30T02:29:53.308Z,78.20
2017-11-30T02:32:19.792Z,78.20
2017-11-30T02:34:47.442Z,78.10
2017-11-30T02:37:14.258Z,78.10
2017-11-30T02:39:40.999Z,78.00
2017-11-30T02:42:07.789Z,77.90
2017-11-30T02:44:34.560Z,78.00
2017-11-30T02:47:01.356Z,78.00
2017-11-30T02:49:27.582Z,78.00
2017-11-30T02:51:53.836Z,78.10
2017-11-30T02:54:20.265Z,78.30
2017-11-30T02:56:47.291Z,78.60
2017-11-30T02:59:14.619Z,78.60
2017-11-30T03:01:42.326Z,79.10
2017-11-30T03:04:08.556Z,79.10
2017-11-30T03:06:35.364Z,79.60
2017-11-30T03:09:02.816Z,78.90
2017-11-30T03:11:30.319Z,78.90
2017-11-30T03:13:57.020Z,78.70
2017-11-30T03:16:23.931Z,78.80
2017-11-30T03:18:50.423Z,78.90
2017-11-30T03:21:18.090Z,78.60
2017-11-30T03:23:44.846Z,78.60
2017-11-30T03:26:11.273Z,78.80
2017-11-30T03:28:37.496Z,79.00
2017-11-30T03:31:04.031Z,78.90
2017-11-30T03:33:30.951Z,78.80
2017-11-30T03:35:58.943Z,78.20
2017-11-30T03:38:25.400Z,78.20
2017-11-30T03:40:52.221Z,78.00
2017-11-30T03:43:18.410Z,78.20
2017-11-30T03:45:45.370Z,78.30
2017-11-30T03:48:11.598Z,78.40
2017-11-30T03:50:38.250Z,78.90
2017-11-30T03:53:07.284Z,79.10
2017-11-30T03:55:33.503Z,79.10
2017-11-30T03:58:00.306Z,78.80
2017-11-30T04:00:27.140Z,78.80
2017-11-30T04:05:35.342Z,78.50
2017-11-30T04:08:02.399Z,78.60
2017-11-30T04:10:30.280Z,78.60
2017-11-30T04:12:57.020Z,78.80
2017-11-30T04:15:23.460Z,78.90
2017-11-30T04:17:50.328Z,78.80
2017-11-30T04:20:17.233Z,78.40
2017-11-30T04:22:44.270Z,78.40
2017-11-30T04:25:10.563Z,78.40
2017-11-30T04:27:38.739Z,78.50
2017-11-30T04:30:05.714Z,78.60
2017-11-30T04:32:33.454Z,78.60
2017-11-30T04:35:00.196Z,78.50
2017-11-30T04:37:27.352Z,78.50
2017-11-30T04:39:55.305Z,78.40
2017-11-30T04:42:21.755Z,78.40
2017-11-30T04:44:49.936Z,78.30
2017-11-30T04:47:16.897Z,78.20
2017-11-30T04:49:44.715Z,78.20
2017-11-30T04:52:12.341Z,78.20
2017-11-30T04:54:39.587Z,78.10
2017-11-30T04:57:06.328Z,78.00
2017-11-30T04:59:33.765Z,77.80
2017-11-30T05:02:00.985Z,78.30
2017-11-30T05:04:27.726Z,78.10
2017-11-30T05:06:54.463Z,78.00
2017-11-30T05:09:21.465Z,77.90
2017-11-30T05:11:47.785Z,77.90
2017-11-30T05:27:15.297Z,78.10
2017-11-30T05:29:42.821Z,79.00
2017-11-30T05:32:09.492Z,79.00
2017-11-30T05:34:37.074Z,78.90
2017-11-30T05:37:03.732Z,78.90
2017-11-30T05:39:30.414Z,78.60
2017-11-30T05:41:57.149Z,78.20
2017-11-30T05:44:23.877Z,77.80
2017-11-30T05:46:50.730Z,77.90
2017-11-30T05:49:17.912Z,77.30
2017-11-30T05:51:44.997Z,77.30
2017-11-30T05:54:11.517Z,77.30
2017-11-30T05:56:38.285Z,77.20
2017-11-30T05:59:05.044Z,76.90
2017-11-30T06:01:31.787Z,77.10
2017-11-30T06:03:59.002Z,77.20
2017-11-30T06:06:25.229Z,77.40
2017-11-30T06:08:51.430Z,77.60
2017-11-30T06:11:17.650Z,77.10
2017-11-30T06:13:44.604Z,77.20
2017-11-30T06:16:10.831Z,77.20
2017-11-30T06:18:37.577Z,76.50
2017-11-30T06:21:05.297Z,76.90
2017-11-30T06:23:31.579Z,76.90
2017-11-30T06:25:58.454Z,77.00
2017-11-30T06:28:25.251Z,76.70
2017-11-30T06:30:52.469Z,77.00
2017-11-30T06:33:19.468Z,77.20
2017-11-30T06:35:45.798Z,77.20
2017-11-30T06:38:12.665Z,76.70
2017-11-30T06:40:38.952Z,77.00
2017-11-30T06:43:07.301Z,76.90
2017-11-30T06:45:34.666Z,76.80
2017-11-30T06:48:01.936Z,76.80
2017-11-30T06:50:28.206Z,76.30
2017-11-30T06:52:54.435Z,76.20
2017-11-30T06:55:21.684Z,76.40
2017-11-30T06:57:49.451Z,75.40
2017-11-30T07:00:16.694Z,75.40
2017-11-30T07:02:43.436Z,75.70
2017-11-30T07:05:10.656Z,75.80
2017-11-30T07:07:38.693Z,76.30
2017-11-30T07:10:06.184Z,76.00
2017-11-30T07:12:33.009Z,76.00
2017-11-30T07:14:59.770Z,76.10
2017-11-30T07:17:25.989Z,76.00
2017-11-30T07:19:52.434Z,75.40
2017-11-30T07:22:19.295Z,75.60
2017-11-30T07:24:46.406Z,76.30
2017-11-30T07:27:14.454Z,77.00
2017-11-30T07:29:41.497Z,77.30
2017-11-30T07:32:09.561Z,77.10
2017-11-30T07:34:36.308Z,77.10
2017-11-30T07:37:04.213Z,77.80
2017-11-30T07:39:31.178Z,77.70
2017-11-30T07:41:59.179Z,77.30
2017-11-30T07:44:25.491Z,77.30
2017-11-30T07:46:52.684Z,77.10
2017-11-30T07:49:20.306Z,77.20
2017-11-30T07:51:46.514Z,77.20
2017-11-30T07:54:13.741Z,77.10
2017-11-30T07:56:41.288Z,77.10
2017-11-30T07:59:07.488Z,77.40
2017-11-30T08:01:34.399Z,77.50
2017-11-30T08:04:00.851Z,77.60
2017-11-30T08:06:28.739Z,77.00
2017-11-30T08:08:56.345Z,77.60
2017-11-30T08:11:22.525Z,77.60
2017-11-30T08:13:50.423Z,77.90
2017-11-30T08:16:17.261Z,77.90
2017-11-30T08:18:43.863Z,78.30
2017-11-30T08:21:11.431Z,77.40
2017-11-30T08:23:39.014Z,76.40
2017-11-30T08:26:05.243Z,76.40
2017-11-30T08:28:31.484Z,76.30
2017-11-30T08:30:57.740Z,76.50
2017-11-30T08:33:23.971Z,76.30
2017-11-30T08:35:50.800Z,76.20
2017-11-30T08:38:17.803Z,76.50
2017-11-30T08:40:44.069Z,76.50
2017-11-30T08:43:10.511Z,76.70
2017-11-30T08:45:37.519Z,77.00
2017-11-30T08:48:03.744Z,77.00
2017-11-30T08:50:31.205Z,76.70
2017-11-30T08:52:57.997Z,76.20
2017-11-30T08:55:25.073Z,75.60
2017-11-30T08:57:52.583Z,75.20
2017-11-30T09:00:19.292Z,75.20
2017-11-30T09:02:46.853Z,75.10
2017-11-30T09:05:14.552Z,75.00
2017-11-30T09:07:41.476Z,75.10
2017-11-30T09:10:07.718Z,76.10
2017-11-30T09:12:33.978Z,75.50
2017-11-30T09:15:00.181Z,75.60
2017-11-30T09:17:26.375Z,75.40
2017-11-30T09:19:52.637Z,76.00
2017-11-30T09:22:19.524Z,76.20
2017-11-30T09:24:47.239Z,75.40
2017-11-30T09:27:13.420Z,75.40
2017-11-30T09:29:39.644Z,75.10
2017-11-30T09:32:07.133Z,75.60
2017-11-30T09:34:35.007Z,75.60
2017-11-30T09:37:01.524Z,76.00
2017-11-30T09:39:29.292Z,74.70
2017-11-30T09:41:55.506Z,74.70
2017-11-30T09:44:22.110Z,74.80
2017-11-30T09:46:49.113Z,74.80
2017-11-30T09:49:15.860Z,74.80
2017-11-30T10:01:27.411Z,74.80
2017-11-30T10:03:54.210Z,73.90
2017-11-30T10:06:21.338Z,73.90
2017-11-30T10:08:49.494Z,73.40
2017-11-30T10:11:16.239Z,73.30
2017-11-30T10:13:43.004Z,72.80
2017-11-30T10:16:09.965Z,74.00
2017-11-30T10:18:37.366Z,74.10
2017-11-30T10:21:05.702Z,73.00
2017-11-30T10:33:17.256Z,73.00
2017-11-30T10:35:43.460Z,72.90
2017-11-30T10:38:10.753Z,73.70
2017-11-30T10:40:37.912Z,73.80
2017-11-30T10:43:04.647Z,73.00
2017-11-30T10:45:32.147Z,71.20
2017-11-30T10:48:00.089Z,71.90
2017-11-30T10:50:26.880Z,71.80
2017-11-30T10:52:53.925Z,72.90
2017-11-30T10:55:20.879Z,73.50
2017-11-30T10:57:47.939Z,72.90
2017-11-30T11:00:14.291Z,72.90
2017-11-30T11:02:40.988Z,72.60
2017-11-30T11:05:08.293Z,72.50
2017-11-30T11:07:35.287Z,72.60
2017-11-30T11:19:48.035Z,72.50
2017-11-30T11:22:15.551Z,69.70
2017-11-30T11:24:42.037Z,69.70
2017-11-30T11:27:09.290Z,70.90
2017-11-30T11:29:36.573Z,70.50
2017-11-30T11:32:03.539Z,70.50
2017-11-30T11:34:31.083Z,69.30
2017-11-30T11:36:57.318Z,69.30
2017-11-30T11:39:23.519Z,70.50
2017-11-30T11:41:50.410Z,70.60
2017-11-30T11:44:16.639Z,70.40
2017-11-30T11:46:43.844Z,71.00
2017-11-30T11:49:11.561Z,71.30
2017-11-30T11:51:38.304Z,71.30
2017-11-30T11:54:05.046Z,69.80
2017-11-30T11:56:32.614Z,70.60
2017-11-30T11:59:00.368Z,70.80
2017-11-30T12:01:27.336Z,70.80
2017-11-30T12:03:55.179Z,70.10
2017-11-30T12:06:21.373Z,70.10
2017-11-30T12:08:48.172Z,70.50
2017-11-30T12:11:15.113Z,71.40
2017-11-30T12:13:42.646Z,71.30
2017-11-30T12:16:09.624Z,70.70
2017-11-30T12:18:36.441Z,70.70
2017-11-30T12:21:03.332Z,70.90
2017-11-30T12:23:29.732Z,71.10
2017-11-30T12:25:56.742Z,70.70
2017-11-30T12:28:23.134Z,70.70
2017-11-30T12:30:49.796Z,70.40
2017-11-30T12:33:16.995Z,71.10
2017-11-30T12:35:44.235Z,71.50
2017-11-30T12:38:11.536Z,71.90
2017-11-30T12:40:39.168Z,72.30
2017-11-30T12:43:05.937Z,72.30
2017-11-30T12:45:32.678Z,72.20
2017-11-30T12:48:00.470Z,71.90
2017-11-30T12:50:26.673Z,71.60
2017-11-30T12:52:53.682Z,71.60
2017-11-30T12:55:20.812Z,71.50
2017-11-30T12:57:47.759Z,71.50
2017-11-30T13:00:15.028Z,71.90
2017-11-30T13:02:42.545Z,71.90
2017-11-30T13:05:09.360Z,71.90
2017-11-30T13:07:35.683Z,71.70
2017-11-30T13:10:02.266Z,71.70
2017-11-30T13:12:29.918Z,72.20
2017-11-30T13:14:57.929Z,72.30
2017-11-30T13:17:24.177Z,72.10
2017-11-30T13:19:51.866Z,72.30
2017-11-30T13:22:18.210Z,72.90
2017-11-30T13:24:44.499Z,73.10
2017-11-30T13:27:12.369Z,73.40
2017-11-30T13:29:39.094Z,73.20
2017-11-30T13:32:05.354Z,72.60
2017-11-30T13:34:31.561Z,72.40
2017-11-30T13:36:58.433Z,72.60
2017-11-30T13:39:25.173Z,72.50
2017-11-30T13:41:51.832Z,72.70
2017-11-30T13:44:19.526Z,73.00
2017-11-30T13:46:46.263Z,73.00
2017-11-30T13:49:13.702Z,72.90
2017-11-30T13:51:41.717Z,73.00
2017-11-30T13:54:07.959Z,72.90
2017-11-30T13:56:34.559Z,73.20
2017-11-30T13:59:00.808Z,73.40
2017-11-30T14:01:27.273Z,73.40
2017-11-30T14:03:55.030Z,73.80
2017-11-30T14:06:22.017Z,74.50
2017-11-30T14:08:48.422Z,73.80
2017-11-30T14:11:15.420Z,72.80
2017-11-30T14:13:41.924Z,72.80
2017-11-30T14:16:09.001Z,73.10
2017-11-30T14:18:35.437Z,73.10
2017-11-30T14:21:02.481Z,73.00
2017-11-30T14:23:28.739Z,73.00
2017-11-30T14:25:55.522Z,73.40
2017-11-30T14:28:23.088Z,72.90
2017-11-30T14:30:50.276Z,73.00
2017-11-30T14:33:17.294Z,73.20
2017-11-30T14:35:43.576Z,72.50
2017-11-30T14:38:10.408Z,73.00
2017-11-30T14:40:36.591Z,72.90
2017-11-30T14:43:04.564Z,73.10
2017-11-30T14:45:31.311Z,72.80
2017-11-30T14:47:58.051Z,73.40
2017-11-30T14:50:25.639Z,73.40
2017-11-30T14:52:52.000Z,74.10
2017-11-30T14:55:18.982Z,74.60
2017-11-30T14:57:45.327Z,74.60
2017-11-30T15:00:13.218Z,74.80
2017-11-30T15:02:40.899Z,74.60
2017-11-30T15:05:07.229Z,74.60
2017-11-30T15:07:33.468Z,74.80
2017-11-30T15:10:00.518Z,75.00
2017-11-30T15:12:27.991Z,75.00
2017-11-30T15:14:55.063Z,75.20
2017-11-30T15:17:21.470Z,75.20
2017-11-30T15:19:48.296Z,74.70
2017-11-30T15:22:15.861Z,74.70
2017-11-30T15:24:42.818Z,75.00
2017-11-30T15:27:09.899Z,74.90
2017-11-30T15:29:37.558Z,74.90
2017-11-30T15:32:04.560Z,74.60
2017-11-30T15:34:31.573Z,74.70
2017-11-30T15:36:57.811Z,74.70
2017-11-30T15:39:24.014Z,74.80
2017-11-30T15:41:51.902Z,74.60
2017-11-30T15:44:18.689Z,74.80
2017-11-30T15:46:44.976Z,74.70
2017-11-30T15:49:12.198Z,75.10
2017-11-30T15:51:38.400Z,74.80
2017-11-30T15:54:05.256Z,74.70
2017-11-30T15:56:31.538Z,74.70
2017-11-30T16:08:44.254Z,74.30
2017-11-30T16:11:10.823Z,74.30
2017-11-30T16:13:38.165Z,75.30
2017-11-30T16:16:04.522Z,75.30
2017-11-30T16:18:30.734Z,75.30
2017-11-30T16:20:57.016Z,75.10
2017-11-30T16:23:23.298Z,75.00
2017-11-30T16:25:49.514Z,74.70
2017-11-30T16:28:16.351Z,74.80
2017-11-30T16:30:44.459Z,74.90
2017-11-30T16:33:11.048Z,74.90
2017-11-30T16:35:38.084Z,74.30
2017-11-30T16:38:05.252Z,74.30
2017-11-30T16:40:33.102Z,74.10
2017-11-30T16:42:59.395Z,74.00
2017-11-30T16:45:26.369Z,74.30
2017-11-30T16:47:52.718Z,74.30
2017-11-30T16:50:19.195Z,74.20
2017-11-30T16:52:46.081Z,74.20
2017-11-30T16:55:12.293Z,74.00
2017-11-30T16:57:39.120Z,74.20
2017-11-30T17:00:06.157Z,74.40
2017-11-30T17:02:32.706Z,74.50
2017-11-30T17:05:00.416Z,74.60
2017-11-30T17:07:27.614Z,74.60
2017-11-30T17:09:55.480Z,74.50
2017-11-30T17:12:22.394Z,74.50
2017-11-30T17:14:49.991Z,74.20
2017-11-30T17:17:17.584Z,74.00
2017-11-30T17:19:45.073Z,74.00
2017-11-30T17:22:11.888Z,74.00
2017-11-30T17:24:38.656Z,73.90
2017-11-30T17:27:04.942Z,73.90
2017-11-30T17:29:31.741Z,74.00
2017-11-30T17:31:58.428Z,74.10
2017-11-30T17:34:24.670Z,74.10
2017-11-30T17:36:51.214Z,74.10
2017-11-30T17:39:18.786Z,73.90
2017-11-30T17:41:45.898Z,73.80
2017-11-30T17:44:13.583Z,73.70
2017-11-30T17:46:41.195Z,73.90
2017-11-30T17:49:08.196Z,73.90
2017-11-30T17:51:35.398Z,73.80
2017-11-30T17:54:01.618Z,73.90
2017-11-30T17:56:28.548Z,73.50
2017-11-30T17:58:56.168Z,73.80
2017-11-30T18:01:22.576Z,73.80
2017-11-30T18:03:49.441Z,73.80
2017-11-30T18:06:15.854Z,73.90
2017-11-30T18:08:42.074Z,74.00
2017-11-30T18:11:08.421Z,73.90
2017-11-30T18:13:35.195Z,73.90
2017-11-30T18:16:02.192Z,73.70
2017-11-30T18:18:28.413Z,73.70
2017-11-30T18:20:55.081Z,73.90
2017-11-30T18:23:22.359Z,73.90
2017-11-30T18:25:50.456Z,73.90
2017-11-30T18:28:18.401Z,73.90
2017-11-30T18:30:44.996Z,73.80
2017-11-30T18:33:11.218Z,74.10
2017-11-30T18:35:37.450Z,74.30
2017-11-30T18:38:04.384Z,74.10
2017-11-30T18:40:31.459Z,74.10
2017-11-30T18:42:58.542Z,74.40
2017-11-30T18:45:25.231Z,74.40
2017-11-30T18:47:51.494Z,74.40
2017-11-30T18:50:17.744Z,74.40
2017-11-30T18:52:46.286Z,74.60
2017-11-30T18:55:12.598Z,74.20
2017-11-30T18:57:39.086Z,74.20
2017-11-30T19:00:07.776Z,74.20
2017-11-30T19:02:34.352Z,74.20
2017-11-30T19:05:02.375Z,74.20
2017-11-30T19:07:29.316Z,74.20
2017-11-30T19:09:56.732Z,74.20
2017-11-30T19:12:23.777Z,74.10
2017-11-30T19:14:50.620Z,74.10
2017-11-30T19:17:17.390Z,75.00
2017-11-30T19:19:44.111Z,74.50
2017-11-30T19:22:11.793Z,74.90
2017-11-30T19:24:39.129Z,74.90
2017-11-30T19:27:06.878Z,75.40
2017-11-30T19:29:33.123Z,75.40
2017-11-30T19:31:59.430Z,75.70
2017-11-30T19:34:26.127Z,75.40
2017-11-30T19:36:53.696Z,76.20
2017-11-30T19:39:21.263Z,76.70
2017-11-30T19:41:47.519Z,76.70
2017-11-30T19:44:14.310Z,77.50
2017-11-30T19:46:40.559Z,77.90
2017-11-30T19:49:08.054Z,78.70
2017-11-30T19:51:34.772Z,78.60
2017-11-30T19:54:01.066Z,78.40
2017-11-30T19:56:27.906Z,78.20
2017-11-30T19:58:54.992Z,78.40
2017-11-30T20:01:21.263Z,78.60
2017-11-30T20:03:47.478Z,78.60
2017-11-30T20:06:13.816Z,78.60
2017-11-30T20:08:40.816Z,78.30
2017-11-30T20:11:07.658Z,78.40
2017-11-30T20:13:33.940Z,78.30
2017-11-30T20:16:01.162Z,78.10
2017-11-30T20:18:27.537Z,77.60
2017-11-30T20:20:54.444Z,77.20
2017-11-30T20:23:20.848Z,77.50
2017-11-30T20:25:48.511Z,76.60
2017-11-30T20:28:15.522Z,76.60
2017-11-30T20:30:42.982Z,76.20
2017-11-30T20:33:10.288Z,76.20
2017-11-30T20:35:36.867Z,76.20
2017-11-30T20:38:03.364Z,76.20
2017-11-30T20:40:30.758Z,76.20
2017-11-30T20:42:57.212Z,76.10
2017-11-30T20:45:24.791Z,76.10
2017-11-30T20:47:51.789Z,76.00
2017-11-30T20:50:18.959Z,76.10
2017-11-30T20:52:46.085Z,76.10
2017-11-30T20:55:12.960Z,76.10
2017-11-30T20:57:40.422Z,76.00
2017-11-30T21:00:07.311Z,76.00
2017-11-30T21:02:34.535Z,75.90
2017-11-30T21:05:03.552Z,75.80
2017-11-30T21:07:32.608Z,76.00
2017-11-30T21:10:00.627Z,76.00
2017-11-30T21:12:28.081Z,76.00
2017-11-30T21:14:55.670Z,75.80
2017-11-30T21:17:23.237Z,75.30
2017-11-30T21:19:50.221Z,75.70
2017-11-30T21:22:17.451Z,75.70
2017-11-30T21:24:43.800Z,75.90
2017-11-30T21:27:10.654Z,76.00
2017-11-30T21:29:36.966Z,76.20
2017-11-30T21:32:03.727Z,76.30
2017-11-30T21:34:30.457Z,76.70
2017-11-30T21:36:58.201Z,76.50
2017-11-30T21:39:25.402Z,77.40
2017-11-30T21:41:51.604Z,76.70
2017-11-30T21:44:17.819Z,76.90
2017-11-30T21:46:45.293Z,77.50
2017-11-30T21:49:12.957Z,77.40
2017-11-30T21:51:39.143Z,77.40
2017-11-30T21:54:06.306Z,77.30
2017-11-30T21:56:32.654Z,77.40
2017-11-30T21:58:59.120Z,77.40
2017-11-30T22:01:26.742Z,77.30
2017-11-30T22:03:53.293Z,77.30
2017-11-30T22:06:21.262Z,77.60
2017-11-30T22:08:47.476Z,77.50
2017-11-30T22:11:14.290Z,77.40
2017-11-30T22:13:40.628Z,77.60
2017-11-30T22:16:07.843Z,77.40
2017-11-30T22:18:34.048Z,77.30
2017-11-30T22:21:01.625Z,77.60
2017-11-30T22:23:29.214Z,76.70
2017-11-30T22:25:56.105Z,76.60
2017-11-30T22:28:23.130Z,77.00
2017-11-30T22:30:50.743Z,76.30
2017-11-30T22:33:18.258Z,76.30
2017-11-30T22:35:44.548Z,76.30
2017-11-30T22:38:12.106Z,76.80
2017-11-30T22:40:38.474Z,76.80
2017-11-30T22:43:05.075Z,76.50
2017-11-30T22:45:33.380Z,77.40
2017-11-30T22:48:00.470Z,77.70
2017-11-30T22:50:27.769Z,77.70
2017-11-30T22:52:54.497Z,77.60
2017-11-30T22:55:20.842Z,77.50
2017-11-30T22:57:47.119Z,77.40
2017-11-30T23:00:13.948Z,77.60
2017-11-30T23:02:40.160Z,77.30
2017-11-30T23:05:06.359Z,76.90
2017-11-30T23:07:32.791Z,76.80
2017-11-30T23:10:00.968Z,76.40
2017-11-30T23:12:27.230Z,77.10
2017-11-30T23:14:53.443Z,76.60
2017-11-30T23:17:20.240Z,76.50
2017-11-30T23:19:47.419Z,76.40
2017-11-30T23:22:13.635Z,76.30
2017-11-30T23:24:40.420Z,76.30
2017-11-30T23:27:07.026Z,76.40
2017-11-30T23:29:34.146Z,76.40
2017-11-30T23:32:01.122Z,76.50
2017-11-30T23:34:27.609Z,76.50
2017-11-30T23:36:54.567Z,76.20
2017-11-30T23:39:21.758Z,76.10
2017-11-30T23:41:49.701Z,76.50
2017-11-30T23:44:16.441Z,76.50
2017-11-30T23:46:43.753Z,76.20
2017-11-30T23:49:11.762Z,76.20
2017-11-30T23:51:38.804Z,76.10
2017-11-30T23:54:05.754Z,76.00
2017-11-30T23:56:33.793Z,76.00
2017-11-30T23:59:01.827Z,76.50
